Time;durP1;ratioP1;P1;durP2;ratioP2;P2;SDS_P1;SDS_P2;PMS_P1;PMS_P2;Temp;Humidity;BMP_temperature;BMP_pressure;BME280_temperature;BME280_humidity;BME280_pressure;Samples;Min_cycle;Max_cycle;Signal;HPM_P1;HPM_P2
2024/01/09 00:00:20;;;;;;;221.43;67.10;;;;;1.80;97338.00;;;;4994961;28;20462;-72
2024/01/09 00:03:09;;;;;;;224.10;73.37;;;;;1.80;97351.00;;;;4989065;28;20465;-72
2024/01/09 00:05:58;;;;;;;247.97;71.93;;;;;1.80;97355.00;;;;4992529;28;20430;-72
2024/01/09 00:08:47;;;;;;;234.77;69.03;;;;;1.80;97354.00;;;;4990622;28;20419;-72
2024/01/09 00:11:36;;;;;;;122.63;55.43;;;;;1.80;97352.00;;;;4988559;28;20426;-72
2024/01/09 00:14:27;;;;;;;125.47;57.83;;;;;1.80;97341.00;;;;4987373;28;20421;-72
2024/01/09 00:17:16;;;;;;;97.20;53.27;;;;;1.80;97354.00;;;;4992183;28;20437;-72
2024/01/09 00:20:06;;;;;;;96.03;54.23;;;;;1.90;97354.00;;;;4989074;28;20483;-72
2024/01/09 00:22:55;;;;;;;90.23;51.23;;;;;1.80;97348.00;;;;4989454;28;20473;-72
2024/01/09 00:25:44;;;;;;;87.53;48.93;;;;;1.90;97355.00;;;;4991056;28;20448;-72
2024/01/09 00:28:33;;;;;;;48.40;36.23;;;;;2.00;97350.00;;;;4990534;28;20426;-72
2024/01/09 00:31:24;;;;;;;65.87;45.93;;;;;2.00;97342.00;;;;4989919;28;20537;-72
2024/01/09 00:34:13;;;;;;;57.97;41.60;;;;;2.00;97354.00;;;;4990028;28;20426;-72
2024/01/09 00:37:02;;;;;;;40.73;33.67;;;;;2.00;97352.00;;;;4989044;28;20426;-73
2024/01/09 00:39:51;;;;;;;35.60;29.77;;;;;1.90;97350.00;;;;4987116;28;20473;-72
2024/01/09 00:42:40;;;;;;;30.83;27.67;;;;;2.00;97350.00;;;;4992137;28;20550;-73
2024/01/09 00:45:29;;;;;;;29.03;25.47;;;;;2.00;97364.00;;;;4987956;28;20434;-72
2024/01/09 00:48:20;;;;;;;36.67;29.40;;;;;2.00;97358.00;;;;4991779;28;20430;-72
2024/01/09 00:51:09;;;;;;;26.03;21.73;;;;;2.00;97362.00;;;;4988971;28;20437;-72
2024/01/09 00:53:58;;;;;;;25.60;21.40;;;;;2.10;97364.00;;;;4988200;28;20418;-73
2024/01/09 00:56:48;;;;;;;20.70;18.53;;;;;2.10;97375.00;;;;4989438;28;20442;-72
2024/01/09 00:59:37;;;;;;;20.63;16.63;;;;;2.10;97374.00;;;;4992265;28;21016;-73
2024/01/09 01:02:26;;;;;;;38.83;27.53;;;;;2.10;97386.00;;;;4985347;28;20461;-72
2024/01/09 01:05:17;;;;;;;45.70;33.33;;;;;2.10;97385.00;;;;4987546;28;20955;-73
2024/01/09 01:08:07;;;;;;;56.50;37.87;;;;;2.00;97388.00;;;;4988453;28;20958;-73
2024/01/09 01:10:56;;;;;;;32.70;28.43;;;;;2.10;97392.00;;;;4987691;28;20426;-72
2024/01/09 01:13:45;;;;;;;34.40;29.13;;;;;2.10;97392.00;;;;4988763;28;20448;-72
2024/01/09 01:16:34;;;;;;;34.60;29.83;;;;;2.10;97388.00;;;;4988395;28;20414;-72
2024/01/09 01:19:23;;;;;;;34.40;30.53;;;;;2.10;97397.00;;;;4987190;28;20477;-72
2024/01/09 01:22:14;;;;;;;40.80;30.83;;;;;2.10;97393.00;;;;4985021;28;20449;-73
2024/01/09 01:25:03;;;;;;;50.43;37.23;;;;;2.10;97393.00;;;;4986493;28;20924;-73
2024/01/09 01:27:52;;;;;;;32.70;29.23;;;;;2.20;97394.00;;;;4983822;28;20418;-73
2024/01/09 01:30:41;;;;;;;32.97;28.93;;;;;2.10;97401.00;;;;4987885;28;20430;-73
2024/01/09 01:33:30;;;;;;;43.70;33.47;;;;;2.20;97400.00;;;;4987160;28;20479;-73
2024/01/09 01:36:19;;;;;;;31.53;28.23;;;;;2.10;97408.00;;;;4988651;28;20542;-73
2024/01/09 01:39:10;;;;;;;37.83;28.10;;;;;2.20;97415.00;;;;4990384;28;20462;-71
2024/01/09 01:41:59;;;;;;;31.83;28.47;;;;;2.20;97412.00;;;;4990971;28;20449;-74
2024/01/09 01:44:49;;;;;;;28.23;25.20;;;;;2.10;97418.00;;;;4986422;28;20939;-73
2024/01/09 01:47:39;;;;;;;31.27;27.87;;;;;2.20;97420.00;;;;4987712;28;20437;-73
2024/01/09 01:50:28;;;;;;;32.70;29.33;;;;;2.20;97423.00;;;;4991707;28;20418;-73
2024/01/09 01:53:18;;;;;;;49.70;35.93;;;;;2.10;97434.00;;;;4988686;28;20450;-74
2024/01/09 01:56:09;;;;;;;46.63;33.17;;;;;1.60;97417.00;;;;4989057;28;21109;-74
2024/01/09 01:58:58;;;;;;;30.17;26.90;;;;;1.40;97423.00;;;;4984748;28;20442;-74
2024/01/09 02:01:48;;;;;;;25.67;23.37;;;;;1.90;97436.00;;;;4988798;28;20434;-73
2024/01/09 02:04:39;;;;;;;41.30;30.73;;;;;1.80;97429.00;;;;4988499;28;20466;-74
2024/01/09 02:07:28;;;;;;;23.83;21.33;;;;;1.80;97443.00;;;;4988116;28;20958;-73
2024/01/09 02:10:18;;;;;;;33.83;24.87;;;;;1.80;97436.00;;;;4990900;28;20426;-74
2024/01/09 02:13:09;;;;;;;46.10;32.60;;;;;1.70;97451.00;;;;4988607;28;20457;-74
2024/01/09 02:15:58;;;;;;;41.50;33.17;;;;;1.70;97442.00;;;;4986216;28;20437;-74
2024/01/09 02:18:47;;;;;;;29.53;26.47;;;;;1.60;97444.00;;;;4986229;28;20434;-72
2024/01/09 02:21:36;;;;;;;29.30;25.97;;;;;1.60;97442.00;;;;4987247;28;20939;-72
2024/01/09 02:24:25;;;;;;;32.80;25.73;;;;;1.50;97454.00;;;;4986917;28;20422;-74
2024/01/09 02:27:19;;;;;;;35.20;27.80;;;;;1.60;97452.00;;;;4993195;28;20441;-75
2024/01/09 02:30:11;;;;;;;36.40;28.33;;;;;1.50;97453.00;;;;4986378;28;20948;-75
2024/01/09 02:33:01;;;;;;;31.70;27.23;;;;;1.40;97459.00;;;;4984565;28;20986;-74
2024/01/09 02:35:50;;;;;;;32.17;28.47;;;;;1.30;97462.00;;;;4985887;28;20458;-75
2024/01/09 02:38:39;;;;;;;30.73;26.30;;;;;1.10;97446.00;;;;4988251;28;20440;-74
2024/01/09 02:41:28;;;;;;;52.07;34.93;;;;;0.90;97457.00;;;;4988804;28;20482;-75
2024/01/09 02:44:18;;;;;;;55.67;34.60;;;;;1.10;97453.00;;;;4986506;28;20449;-75
2024/01/09 02:47:09;;;;;;;38.43;28.07;;;;;1.00;97458.00;;;;4993417;28;20434;-74
2024/01/09 02:49:58;;;;;;;26.73;23.87;;;;;1.00;97442.00;;;;4987124;28;21133;-76
2024/01/09 02:52:47;;;;;;;30.87;27.60;;;;;1.00;97443.00;;;;4983912;28;20827;-74
2024/01/09 02:55:36;;;;;;;27.23;23.40;;;;;0.90;97443.00;;;;4985443;28;20923;-76
2024/01/09 02:58:25;;;;;;;32.07;22.87;;;;;0.90;97445.00;;;;4986257;28;21146;-74
2024/01/09 03:01:14;;;;;;;32.10;20.45;;;;;0.70;97443.00;;;;4990527;28;20465;-76
2024/01/09 03:04:05;;;;;;;19.77;15.40;;;;;0.70;97443.00;;;;4987077;28;20444;-75
2024/01/09 03:06:54;;;;;;;16.73;14.77;;;;;0.80;97437.00;;;;4986532;28;20783;-76
2024/01/09 03:09:43;;;;;;;18.37;15.67;;;;;0.70;97434.00;;;;4994801;28;20968;-76
2024/01/09 03:12:32;;;;;;;19.50;14.93;;;;;0.60;97442.00;;;;4990935;28;20449;-75
2024/01/09 03:15:22;;;;;;;13.23;11.13;;;;;0.50;97425.00;;;;4992899;28;20429;-77
2024/01/09 03:18:11;;;;;;;31.80;18.23;;;;;0.10;97434.00;;;;4991423;28;20951;-74
2024/01/09 03:21:02;;;;;;;17.27;14.00;;;;;0.30;97439.00;;;;4991422;28;20465;-74
2024/01/09 03:23:51;;;;;;;20.70;16.83;;;;;0.60;97440.00;;;;4986916;28;20477;-74
2024/01/09 03:26:40;;;;;;;21.20;16.97;;;;;0.40;97435.00;;;;4994149;28;20427;-74
2024/01/09 03:29:29;;;;;;;18.53;14.30;;;;;0.40;97443.00;;;;4983171;28;20435;-74
2024/01/09 03:32:18;;;;;;;30.37;18.07;;;;;0.50;97433.00;;;;4988722;28;20445;-74
2024/01/09 03:35:08;;;;;;;26.83;15.60;;;;;0.40;97437.00;;;;4992736;28;20434;-74
2024/01/09 03:37:58;;;;;;;17.07;9.43;;;;;0.10;97434.00;;;;4992738;28;20963;-75
2024/01/09 03:40:47;;;;;;;18.27;10.97;;;;;0.10;97439.00;;;;4985277;28;20450;-76
2024/01/09 03:43:37;;;;;;;16.53;11.47;;;;;0.30;97448.00;;;;4990532;28;20454;-75
2024/01/09 03:46:26;;;;;;;14.33;10.33;;;;;0.60;97452.00;;;;4991378;28;20964;-75
2024/01/09 03:49:15;;;;;;;19.33;15.03;;;;;0.90;97445.00;;;;4991136;28;20430;-75
2024/01/09 03:52:06;;;;;;;20.37;13.93;;;;;0.90;97451.00;;;;4990984;28;20834;-76
2024/01/09 03:54:56;;;;;;;19.03;14.03;;;;;0.90;97456.00;;;;4984187;28;20422;-75
2024/01/09 03:57:45;;;;;;;22.13;17.03;;;;;1.00;97448.00;;;;4989935;28;20430;-76
2024/01/09 04:00:34;;;;;;;18.53;16.57;;;;;1.00;97451.00;;;;4990799;28;20465;-75
2024/01/09 04:03:24;;;;;;;26.93;21.37;;;;;0.90;97460.00;;;;4987919;28;20850;-76
2024/01/09 04:06:13;;;;;;;31.07;24.57;;;;;0.70;97461.00;;;;4989675;28;20430;-77
2024/01/09 04:09:03;;;;;;;28.43;24.57;;;;;0.40;97457.00;;;;4988811;28;20465;-76
2024/01/09 04:11:53;;;;;;;34.50;28.63;;;;;0.60;97457.00;;;;4981222;28;20438;-76
2024/01/09 04:14:42;;;;;;;45.67;33.93;;;;;0.90;97466.00;;;;4982988;28;20458;-75
2024/01/09 04:17:31;;;;;;;85.80;47.40;;;;;1.10;97462.00;;;;4988244;28;20423;-75
2024/01/09 04:20:20;;;;;;;128.70;56.33;;;;;1.20;97464.00;;;;4991419;28;21290;-76
2024/01/09 04:23:10;;;;;;;98.87;50.93;;;;;1.30;97465.00;;;;5025255;23;20491;-90
2024/01/09 04:25:59;;;;;;;51.17;36.97;;;;;1.30;97486.00;;;;5046083;28;20548;-90
2024/01/09 04:28:50;;;;;;;119.77;53.90;;;;;1.20;97486.00;;;;5033938;28;20435;-91
2024/01/09 04:31:39;;;;;;;47.60;33.73;;;;;0.90;97495.00;;;;5055296;28;20982;-90
2024/01/09 04:34:28;;;;;;;113.17;53.37;;;;;1.10;97489.00;;;;5058363;28;20419;-90
2024/01/09 04:37:17;;;;;;;34.40;24.90;;;;;1.20;97502.00;;;;5055667;28;20446;-90
2024/01/09 04:40:08;;;;;;;27.63;21.50;;;;;1.40;97494.00;;;;5054548;28;20431;-90
2024/01/09 04:42:57;;;;;;;23.20;20.73;;;;;1.40;97505.00;;;;5051859;28;20430;-91
2024/01/09 04:45:48;;;;;;;26.17;23.27;;;;;1.40;97516.00;;;;5061163;28;20435;-91
2024/01/09 04:48:37;;;;;;;31.53;26.43;;;;;1.50;97516.00;;;;5058620;28;20412;-90
2024/01/09 04:51:26;;;;;;;42.47;30.63;;;;;1.50;97520.00;;;;5056958;28;20459;-90
2024/01/09 04:54:16;;;;;;;44.53;31.77;;;;;1.50;97526.00;;;;5055530;28;20424;-90
2024/01/09 04:57:05;;;;;;;40.50;32.20;;;;;1.60;97533.00;;;;5057811;28;20439;-90
2024/01/09 04:59:54;;;;;;;38.70;31.33;;;;;1.60;97533.00;;;;5052257;28;20427;-90
2024/01/09 05:02:45;;;;;;;39.93;32.93;;;;;1.50;97542.00;;;;5063195;28;20791;-90
2024/01/09 05:05:34;;;;;;;32.73;29.27;;;;;1.60;97542.00;;;;5057729;28;20447;-91
2024/01/09 05:08:23;;;;;;;40.30;32.37;;;;;1.70;97542.00;;;;5054630;28;20415;-90
2024/01/09 05:11:13;;;;;;;54.60;37.67;;;;;1.60;97548.00;;;;5050714;28;20478;-91
2024/01/09 05:14:04;;;;;;;99.13;48.20;;;;;1.70;97548.00;;;;5052132;28;20565;-86
2024/01/09 05:16:53;;;;;;;102.17;50.70;;;;;1.60;97545.00;;;;5056934;28;20454;-88
2024/01/09 05:19:44;;;;;;;120.23;54.33;;;;;1.40;97556.00;;;;5058835;28;20423;-91
2024/01/09 05:22:35;;;;;;;149.50;58.90;;;;;1.40;97552.00;;;;5053922;28;20438;-91
2024/01/09 05:25:24;;;;;;;148.73;60.60;;;;;1.10;97566.00;;;;5056092;28;20451;-91
2024/01/09 05:28:15;;;;;;;44.00;32.60;;;;;1.00;97563.00;;;;5055818;28;20431;-90
2024/01/09 05:31:05;;;;;;;25.63;21.47;;;;;0.90;97564.00;;;;5055287;28;20507;-89
2024/01/09 05:33:54;;;;;;;18.87;16.80;;;;;0.80;97559.00;;;;5051590;28;20431;-88
2024/01/09 05:36:45;;;;;;;16.27;14.50;;;;;1.00;97567.00;;;;5061253;28;20964;-89
2024/01/09 05:39:34;;;;;;;24.80;17.30;;;;;1.40;97573.00;;;;5064914;28;20435;-89
2024/01/09 05:42:23;;;;;;;19.77;14.30;;;;;1.40;97575.00;;;;5057418;28;20775;-90
2024/01/09 05:45:13;;;;;;;31.97;19.47;;;;;1.10;97576.00;;;;5049387;28;20428;-88
2024/01/09 05:48:02;;;;;;;16.67;13.33;;;;;1.30;97582.00;;;;5060399;28;20444;-89
2024/01/09 05:50:52;;;;;;;14.73;12.77;;;;;1.10;97578.00;;;;5059601;28;20430;-89
2024/01/09 05:53:43;;;;;;;17.70;14.97;;;;;1.20;97591.00;;;;5051122;28;20434;-89
2024/01/09 05:56:32;;;;;;;24.47;18.27;;;;;1.60;97595.00;;;;5055073;28;20881;-90
2024/01/09 05:59:21;;;;;;;31.00;20.10;;;;;1.60;97590.00;;;;5051816;28;20477;-89
2024/01/09 06:02:11;;;;;;;37.03;23.27;;;;;1.70;97598.00;;;;5053322;28;20420;-89
2024/01/09 06:05:00;;;;;;;21.20;18.97;;;;;1.70;97594.00;;;;5055023;28;20435;-89
2024/01/09 06:07:49;;;;;;;24.47;21.90;;;;;1.60;97590.00;;;;5051565;28;20451;-89
2024/01/09 06:10:39;;;;;;;26.90;24.17;;;;;1.60;97594.00;;;;5052612;28;20828;-91
2024/01/09 06:13:29;;;;;;;36.60;30.13;;;;;1.60;97600.00;;;;5053939;28;20415;-90
2024/01/09 06:16:19;;;;;;;49.83;35.07;;;;;1.60;97594.00;;;;5056222;28;20455;-89
2024/01/09 06:19:08;;;;;;;54.47;38.30;;;;;1.70;97596.00;;;;5051621;28;20940;-89
2024/01/09 06:21:59;;;;;;;43.33;34.10;;;;;1.70;97596.00;;;;5046321;28;20461;-89
2024/01/09 06:24:48;;;;;;;50.57;38.20;;;;;1.70;97596.00;;;;5059590;28;20423;-89
2024/01/09 06:27:39;;;;;;;40.30;34.13;;;;;1.40;97607.00;;;;5061908;28;20422;-88
2024/01/09 06:30:28;;;;;;;54.80;39.40;;;;;1.50;97600.00;;;;5055311;28;20430;-89
2024/01/09 06:33:18;;;;;;;72.17;46.33;;;;;1.70;97605.00;;;;5048139;28;20466;-90
2024/01/09 06:36:07;;;;;;;78.83;49.97;;;;;1.70;97604.00;;;;5053377;28;20447;-90
2024/01/09 06:38:57;;;;;;;63.77;41.93;;;;;1.60;97601.00;;;;5048691;28;20443;-89
2024/01/09 06:41:46;;;;;;;117.27;72.97;;;;;1.60;97612.00;;;;5046078;28;20807;-91
2024/01/09 06:44:36;;;;;;;63.57;42.03;;;;;1.50;97608.00;;;;5059385;28;20434;-89
2024/01/09 06:47:27;;;;;;;53.03;38.77;;;;;1.40;97615.00;;;;5057257;28;20953;-90
2024/01/09 06:50:16;;;;;;;51.13;36.10;;;;;1.60;97624.00;;;;5058131;28;20420;-89
2024/01/09 06:53:08;;;;;;;54.97;39.03;;;;;1.80;97620.00;;;;5056465;28;20459;-89
2024/01/09 06:55:57;;;;;;;59.10;41.33;;;;;1.90;97628.00;;;;5053929;28;20443;-89
2024/01/09 06:58:47;;;;;;;73.20;44.27;;;;;1.80;97636.00;;;;5053661;28;20458;-89
2024/01/09 07:01:38;;;;;;;105.77;51.87;;;;;1.80;97635.00;;;;5052300;28;20991;-90
2024/01/09 07:04:28;;;;;;;85.60;49.33;;;;;1.80;97647.00;;;;5043792;28;20451;-89
2024/01/09 07:07:17;;;;;;;142.67;78.43;;;;;1.90;97647.00;;;;5045338;28;20458;-88
2024/01/09 07:10:08;;;;;;;64.10;21.63;;;;;1.90;97658.00;;;;5040722;28;20507;-89
2024/01/09 07:12:58;;;;;;;46.93;15.07;;;;;1.90;97662.00;;;;5042633;28;20480;-88
2024/01/09 07:15:47;;;;;;;55.20;20.10;;;;;2.00;97669.00;;;;5044403;28;20454;-89
2024/01/09 07:18:37;;;;;;;16.53;6.07;;;;;2.00;97674.00;;;;5052786;28;20441;-89
2024/01/09 07:21:27;;;;;;;17.23;6.43;;;;;2.00;97671.00;;;;5057110;28;20438;-89
2024/01/09 07:24:16;;;;;;;23.50;7.93;;;;;2.10;97678.00;;;;5054396;28;20813;-89
2024/01/09 07:27:05;;;;;;;27.50;9.17;;;;;2.10;97678.00;;;;5042196;28;20535;-90
2024/01/09 07:29:55;;;;;;;11.97;5.30;;;;;2.10;97684.00;;;;5049914;28;20450;-89
2024/01/09 07:32:44;;;;;;;15.07;6.07;;;;;2.10;97693.00;;;;5051755;28;20485;-89
2024/01/09 07:35:37;;;;;;;13.67;5.57;;;;;2.10;97692.00;;;;5050726;28;20447;-89
2024/01/09 07:38:26;;;;;;;17.27;6.77;;;;;2.20;97699.00;;;;5055814;28;20458;-88
2024/01/09 07:41:17;;;;;;;13.77;5.83;;;;;2.10;97699.00;;;;5053548;28;20415;-89
2024/01/09 07:44:06;;;;;;;18.80;7.50;;;;;2.20;97703.00;;;;5052941;28;20540;-88
2024/01/09 07:46:56;;;;;;;8.33;4.70;;;;;2.30;97704.00;;;;5057104;28;20445;-89
2024/01/09 07:49:45;;;;;;;12.67;6.33;;;;;2.30;97712.00;;;;5060055;28;20971;-90
2024/01/09 07:52:35;;;;;;;14.43;6.93;;;;;2.10;97714.00;;;;5052105;28;20473;-89
2024/01/09 07:55:25;;;;;;;13.07;7.03;;;;;2.20;97712.00;;;;5054433;28;20452;-89
2024/01/09 07:58:14;;;;;;;24.50;9.87;;;;;2.20;97710.00;;;;5053556;28;20423;-89
2024/01/09 08:01:04;;;;;;;12.73;7.47;;;;;2.30;97716.00;;;;5058861;28;20431;-89
2024/01/09 08:03:53;;;;;;;11.83;7.20;;;;;2.20;97716.00;;;;5057088;28;20522;-89
2024/01/09 08:06:42;;;;;;;10.20;7.83;;;;;2.20;97721.00;;;;5052836;28;20470;-88
2024/01/09 08:09:33;;;;;;;15.70;10.03;;;;;2.30;97715.00;;;;5061656;28;20479;-89
2024/01/09 08:12:22;;;;;;;26.10;13.43;;;;;2.30;97728.00;;;;5054731;28;20567;-89
2024/01/09 08:15:12;;;;;;;27.83;16.37;;;;;2.40;97727.00;;;;5056035;28;20799;-88
2024/01/09 08:18:01;;;;;;;15.33;11.83;;;;;2.30;97732.00;;;;5052189;28;20427;-88
2024/01/09 08:20:50;;;;;;;17.13;14.17;;;;;2.30;97734.00;;;;5054274;28;20501;-89
2024/01/09 08:23:40;;;;;;;26.33;21.20;;;;;2.40;97737.00;;;;5054902;28;20439;-89
2024/01/09 08:26:31;;;;;;;35.03;30.67;;;;;2.30;97738.00;;;;5053968;28;20451;-89
2024/01/09 08:29:22;;;;;;;44.20;32.50;;;;;2.40;97743.00;;;;5052545;28;20427;-89
2024/01/09 08:32:15;;;;;;;36.07;28.43;;;;;2.40;97744.00;;;;5052487;28;20439;-89
2024/01/09 08:35:04;;;;;;;37.13;31.00;;;;;2.50;97742.00;;;;5052695;28;20494;-89
2024/01/09 08:37:54;;;;;;;31.53;28.20;;;;;2.40;97748.00;;;;5054769;28;20426;-90
2024/01/09 08:40:43;;;;;;;20.57;18.40;;;;;2.40;97743.00;;;;5057363;28;20433;-89
2024/01/09 08:43:34;;;;;;;32.37;26.40;;;;;2.40;97756.00;;;;5054403;28;20443;-89
2024/01/09 08:46:23;;;;;;;31.10;23.33;;;;;2.50;97759.00;;;;5055493;28;20443;-88
2024/01/09 08:49:13;;;;;;;26.03;23.47;;;;;2.60;97760.00;;;;5051152;28;20458;-89
2024/01/09 08:52:03;;;;;;;19.00;16.97;;;;;2.50;97772.00;;;;5052680;28;20435;-89
2024/01/09 08:54:53;;;;;;;18.20;16.53;;;;;2.50;97770.00;;;;5052865;28;20420;-89
2024/01/09 08:57:42;;;;;;;20.23;18.10;;;;;2.50;97771.00;;;;5054422;28;20444;-89
2024/01/09 09:00:33;;;;;;;29.57;26.43;;;;;2.50;97781.00;;;;5055008;28;20419;-89
2024/01/09 09:03:22;;;;;;;28.10;24.93;;;;;2.60;97777.00;;;;5050136;28;20416;-88
2024/01/09 09:06:11;;;;;;;30.40;24.90;;;;;2.50;97777.00;;;;5050946;28;20538;-89
2024/01/09 09:09:00;;;;;;;29.63;24.77;;;;;2.60;97791.00;;;;5051762;28;20461;-89
2024/01/09 09:11:50;;;;;;;31.20;26.57;;;;;2.70;97796.00;;;;5054411;28;20439;-89
2024/01/09 09:14:39;;;;;;;24.83;22.00;;;;;2.70;97795.00;;;;5058732;28;20474;-89
2024/01/09 09:17:30;;;;;;;22.87;20.47;;;;;2.60;97801.00;;;;5051679;28;20427;-89
2024/01/09 09:20:20;;;;;;;31.20;22.60;;;;;2.50;97796.00;;;;5056291;28;20423;-88
2024/01/09 09:23:09;;;;;;;20.80;18.87;;;;;2.60;97813.00;;;;5051375;28;20435;-89
2024/01/09 09:25:58;;;;;;;23.73;19.60;;;;;2.60;97809.00;;;;5055057;28;20998;-89
2024/01/09 09:28:48;;;;;;;20.90;18.70;;;;;2.70;97803.00;;;;5055191;28;20423;-89
2024/01/09 09:31:42;;;;;;;22.10;19.97;;;;;2.80;97817.00;;;;5063575;28;20440;-88
2024/01/09 09:34:33;;;;;;;21.23;19.30;;;;;2.70;97807.00;;;;5055527;28;20471;-89
2024/01/09 09:37:22;;;;;;;27.33;23.00;;;;;2.80;97802.00;;;;5051163;28;20455;-89
2024/01/09 09:40:12;;;;;;;34.10;25.23;;;;;2.90;97808.00;;;;5074574;28;20427;-91
2024/01/09 09:43:04;;;;;;;24.47;22.07;;;;;2.80;97802.00;;;;5064312;28;21217;-88
2024/01/09 09:45:56;;;;;;;25.83;22.23;;;;;2.80;97813.00;;;;5059936;28;20484;-89
2024/01/09 09:48:46;;;;;;;27.00;24.27;;;;;3.00;97809.00;;;;5056542;28;20778;-89
2024/01/09 09:51:37;;;;;;;27.00;24.23;;;;;3.00;97799.00;;;;5051347;28;20501;-88
2024/01/09 09:54:26;;;;;;;29.10;25.53;;;;;3.10;97815.00;;;;5055613;28;20473;-89
2024/01/09 09:57:16;;;;;;;33.73;26.30;;;;;3.20;97813.00;;;;5048191;28;20976;-88
2024/01/09 10:00:08;;;;;;;28.13;25.33;;;;;3.00;97817.00;;;;5056883;28;20461;-89
2024/01/09 10:02:58;;;;;;;27.63;24.90;;;;;2.90;97814.00;;;;5052242;28;20466;-89
2024/01/09 10:05:47;;;;;;;30.00;26.90;;;;;2.90;97822.00;;;;5054693;28;20469;-89
2024/01/09 10:08:38;;;;;;;31.40;28.10;;;;;3.00;97820.00;;;;5052591;28;20435;-89
2024/01/09 10:11:28;;;;;;;38.80;29.93;;;;;3.00;97818.00;;;;5050244;28;20807;-89
2024/01/09 10:14:17;;;;;;;47.67;33.87;;;;;2.90;97813.00;;;;5053863;28;20470;-89
2024/01/09 10:17:06;;;;;;;35.10;31.50;;;;;3.00;97817.00;;;;5056569;28;21000;-91
2024/01/09 10:19:56;;;;;;;44.70;34.53;;;;;3.10;97814.00;;;;5059911;28;21051;-88
2024/01/09 10:22:45;;;;;;;41.63;34.63;;;;;3.10;97809.00;;;;5054083;28;20955;-88
2024/01/09 10:25:36;;;;;;;39.93;33.50;;;;;3.20;97814.00;;;;5056039;28;20430;-88
2024/01/09 10:28:25;;;;;;;71.90;46.80;;;;;3.20;97813.00;;;;5056343;28;20440;-87
2024/01/09 10:31:15;;;;;;;51.83;33.33;;;;;2.90;97816.00;;;;5059268;28;21268;-88
2024/01/09 10:34:04;;;;;;;18.93;17.20;;;;;2.90;97820.00;;;;5054690;28;20478;-88
2024/01/09 10:36:55;;;;;;;24.97;22.50;;;;;3.00;97823.00;;;;5061949;28;20446;-88
2024/01/09 10:39:50;;;;;;;28.17;25.27;;;;;3.00;97815.00;;;;5060208;28;20435;-87
2024/01/09 10:42:47;;;;;;;28.00;24.97;;;;;3.30;97822.00;;;;5057220;28;20435;-87
2024/01/09 10:45:37;;;;;;;29.83;26.73;;;;;3.50;97819.00;;;;5054862;28;20449;-87
2024/01/09 10:48:26;;;;;;;26.43;23.30;;;;;3.30;97819.00;;;;5055779;28;20430;-88
2024/01/09 10:51:17;;;;;;;34.27;26.50;;;;;3.10;97811.00;;;;5055934;28;20486;-88
2024/01/09 10:54:08;;;;;;;29.80;26.27;;;;;3.10;97809.00;;;;5053779;28;20524;-87
2024/01/09 10:56:58;;;;;;;31.63;28.53;;;;;3.30;97824.00;;;;5054476;28;20451;-88
2024/01/09 10:59:48;;;;;;;31.63;28.47;;;;;3.40;97825.00;;;;5051354;28;20458;-87
2024/01/09 11:02:38;;;;;;;36.30;32.23;;;;;2.40;97812.00;;;;5059165;28;20454;-85
2024/01/09 11:05:27;;;;;;;39.40;32.77;;;;;2.30;97812.00;;;;5057083;28;20568;-88
2024/01/09 11:08:18;;;;;;;49.30;37.60;;;;;3.20;97817.00;;;;5059901;28;20431;-90
2024/01/09 11:11:10;;;;;;;39.67;33.70;;;;;2.90;97810.00;;;;5055713;28;20446;-90
2024/01/09 11:14:00;;;;;;;45.00;37.47;;;;;2.90;97812.00;;;;5061441;28;20443;-87
2024/01/09 11:17:06;;;;;;;51.77;39.63;;;;;3.20;97819.00;;;;5052986;28;21022;-87
2024/01/09 11:19:55;;;;;;;60.23;42.47;;;;;2.00;97811.00;;;;5056214;28;20434;-86
2024/01/09 11:22:44;;;;;;;80.23;47.63;;;;;1.90;97812.00;;;;5052662;28;20435;-86
2024/01/09 11:25:35;;;;;;;85.53;50.00;;;;;2.40;97812.00;;;;5056235;28;20451;-89
2024/01/09 11:28:38;;;;;;;104.10;57.73;;;;;2.70;97819.00;;;;5056514;28;20955;-89
2024/01/09 11:31:29;;;;;;;96.20;52.97;;;;;2.90;97824.00;;;;5063851;28;21950;-89
2024/01/09 11:34:29;;;;;;;109.57;57.20;;;;;2.80;97820.00;;;;5053896;28;21007;-88
2024/01/09 11:37:20;;;;;;;124.30;59.33;;;;;2.50;97825.00;;;;5057447;28;20557;-88
2024/01/09 11:40:11;;;;;;;152.50;61.40;;;;;2.90;97817.00;;;;5052056;28;20970;-89
2024/01/09 11:43:00;;;;;;;152.63;60.87;;;;;2.60;97813.00;;;;5053682;28;20427;-90
2024/01/09 11:45:49;;;;;;;221.10;73.13;;;;;2.20;97809.00;;;;5056138;28;20446;-87
2024/01/09 11:48:39;;;;;;;266.27;91.03;;;;;2.60;97820.00;;;;5052741;28;20442;-88
2024/01/09 11:51:30;;;;;;;23.03;14.30;;;;;2.60;97822.00;;;;5053887;28;20438;-86
2024/01/09 11:54:19;;;;;;;31.50;13.43;;;;;2.60;97822.00;;;;5054451;28;20850;-87
2024/01/09 11:57:09;;;;;;;12.60;7.43;;;;;2.90;97819.00;;;;5050338;28;20459;-87
2024/01/09 12:00:00;;;;;;;14.77;9.77;;;;;2.90;97813.00;;;;5057470;28;20964;-87
2024/01/09 12:02:49;;;;;;;20.53;17.40;;;;;3.00;97826.00;;;;5055539;28;20784;-87
2024/01/09 12:05:39;;;;;;;105.70;53.40;;;;;2.80;97818.00;;;;5059271;28;20459;-87
2024/01/09 12:08:29;;;;;;;18.80;12.67;;;;;2.80;97825.00;;;;5055025;28;21455;-87
2024/01/09 12:11:18;;;;;;;104.27;54.00;;;;;2.80;97814.00;;;;5053908;28;20928;-86
2024/01/09 12:14:08;;;;;;;24.07;8.30;;;;;3.00;97824.00;;;;5057088;28;20458;-87
2024/01/09 12:16:57;;;;;;;7.87;3.60;;;;;2.70;97823.00;;;;5074723;28;20456;-88
2024/01/09 12:19:46;;;;;;;11.37;3.97;;;;;2.70;97817.00;;;;5065321;28;20452;-86
2024/01/09 12:22:35;;;;;;;10.13;3.73;;;;;3.00;97831.00;;;;5058971;28;20440;-87
2024/01/09 12:25:26;;;;;;;21.37;6.50;;;;;2.80;97833.00;;;;5062346;28;20477;-87
2024/01/09 12:28:15;;;;;;;16.63;5.43;;;;;2.90;97838.00;;;;5057342;28;20430;-86
2024/01/09 12:31:06;;;;;;;13.13;4.30;;;;;2.80;97839.00;;;;5057338;28;20441;-87
2024/01/09 12:33:56;;;;;;;10.97;3.57;;;;;2.80;97840.00;;;;5051685;28;20431;-87
2024/01/09 12:36:45;;;;;;;11.03;3.60;;;;;2.80;97835.00;;;;5055824;28;20455;-86
2024/01/09 12:39:35;;;;;;;11.83;3.80;;;;;2.90;97847.00;;;;5062730;28;20439;-86
2024/01/09 12:42:26;;;;;;;18.17;5.47;;;;;2.70;97842.00;;;;5055864;28;20430;-86
2024/01/09 12:45:15;;;;;;;25.00;7.60;;;;;2.30;97845.00;;;;5053095;28;20442;-86
2024/01/09 12:48:07;;;;;;;14.60;4.57;;;;;1.90;97846.00;;;;5051644;28;20435;-86
2024/01/09 12:51:00;;;;;;;11.40;3.77;;;;;2.20;97855.00;;;;5055613;28;20497;-88
2024/01/09 12:53:49;;;;;;;8.63;2.87;;;;;2.40;97855.00;;;;5051445;28;20465;-87
2024/01/09 12:56:39;;;;;;;10.87;3.57;;;;;2.30;97861.00;;;;5052065;28;20471;-87
2024/01/09 12:59:30;;;;;;;12.20;3.90;;;;;2.40;97858.00;;;;5054458;28;20441;-86
2024/01/09 13:02:19;;;;;;;24.17;7.40;;;;;2.60;97859.00;;;;5052929;28;20442;-86
2024/01/09 13:05:09;;;;;;;10.50;3.37;;;;;2.60;97862.00;;;;5052374;28;20428;-89
2024/01/09 13:07:59;;;;;;;13.93;4.40;;;;;2.50;97870.00;;;;5059035;28;20443;-87
2024/01/09 13:10:48;;;;;;;10.97;3.63;;;;;2.60;97871.00;;;;5053910;28;20443;-87
2024/01/09 13:13:39;;;;;;;11.63;3.97;;;;;2.70;97862.00;;;;5051256;28;21117;-87
2024/01/09 13:16:29;;;;;;;21.93;6.70;;;;;2.70;97870.00;;;;5052922;28;20502;-87
2024/01/09 13:19:19;;;;;;;20.27;6.13;;;;;2.70;97865.00;;;;5056405;28;20451;-87
2024/01/09 13:22:09;;;;;;;8.70;3.07;;;;;2.70;97864.00;;;;5051483;28;20842;-87
2024/01/09 13:25:18;;;;;;;21.93;6.60;;;;;2.00;97869.00;;;;5054049;28;20514;-86
2024/01/09 13:28:07;;;;;;;13.97;4.40;;;;;2.50;97869.00;;;;5047955;28;20431;-86
2024/01/09 13:30:56;;;;;;;8.07;2.87;;;;;2.60;97874.00;;;;5050549;28;20424;-87
2024/01/09 13:33:47;;;;;;;10.07;3.40;;;;;2.30;97884.00;;;;5051140;28;20436;-85
2024/01/09 13:36:37;;;;;;;5.47;1.87;;;;;2.30;97879.00;;;;5054972;28;20479;-85
2024/01/09 13:39:28;;;;;;;16.30;5.07;;;;;2.40;97887.00;;;;5053772;28;20428;-85
2024/01/09 13:42:17;;;;;;;23.30;6.93;;;;;2.40;97876.00;;;;5050567;28;20446;-85
2024/01/09 13:45:08;;;;;;;13.13;4.23;;;;;1.80;97886.00;;;;5057215;28;20419;-87
2024/01/09 13:47:57;;;;;;;10.27;3.33;;;;;2.00;97889.00;;;;5051984;28;20450;-90
2024/01/09 13:50:48;;;;;;;9.60;3.20;;;;;2.10;97888.00;;;;5056616;28;20431;-89
2024/01/09 13:53:40;;;;;;;10.63;3.50;;;;;2.10;97881.00;;;;5055696;28;20434;-89
2024/01/09 13:56:30;;;;;;;9.10;3.17;;;;;2.10;97886.00;;;;5055149;28;20834;-88
2024/01/09 13:59:19;;;;;;;17.93;5.57;;;;;2.30;97891.00;;;;5053894;28;20427;-89